Time;durP1;ratioP1;P1;durP2;ratioP2;P2;SDS_P1;SDS_P2;PMS_P1;PMS_P2;Temp;Humidity;BMP_temperature;BMP_pressure;BME280_temperature;BME280_humidity;BME280_pressure;Samples;Min_cycle;Max_cycle;Signal;HPM_P1;HPM_P2
2023/07/31 02:20:49;;;;;;;;;;;;;;;;;;;;;
2023/07/31 02:34:37;;;;;;;6.50;1.52;;;18.70;77.20;;;;;;5932089;24;20020;-96
2023/07/31 02:37:28;;;;;;;4.35;1.65;;;18.70;77.00;;;;;;6017055;23;20029;-95
2023/07/31 02:40:35;;;;;;;3.42;1.30;;;18.80;77.00;;;;;;6052040;23;20055;-93
2023/07/31 02:43:05;;;;;;;4.38;1.42;;;18.80;76.60;;;;;;6021441;23;20042;-93
2023/07/31 02:45:42;;;;;;;4.30;1.20;;;18.80;76.50;;;;;;6023125;23;20051;-94
2023/07/31 02:48:19;;;;;;;4.35;1.65;;;18.80;76.60;;;;;;6022431;23;20027;-94
2023/07/31 02:50:50;;;;;;;5.43;1.80;;;18.80;76.80;;;;;;6022307;23;20023;-92
2023/07/31 02:53:17;;;;;;;6.88;1.85;;;18.80;76.80;;;;;;6119923;23;20024;-94
2023/07/31 02:55:49;;;;;;;4.43;1.63;;;18.80;76.70;;;;;;6137935;23;20316;-93
2023/07/31 03:03:08;;;;;;;5.07;1.60;;;18.70;76.70;;;;;;6040564;23;20022;-93
2023/07/31 03:05:39;;;;;;;4.22;1.50;;;18.60;76.90;;;;;;6197345;23;20022;-94
2023/07/31 03:08:10;;;;;;;4.80;1.58;;;18.60;77.00;;;;;;6137909;23;20075;-93
2023/07/31 03:10:47;;;;;;;4.72;1.50;;;18.60;77.20;;;;;;6139059;23;20524;-93
2023/07/31 03:13:22;;;;;;;4.93;1.40;;;18.60;77.20;;;;;;6129659;23;20077;-93
2023/07/31 03:15:50;;;;;;;5.00;1.80;;;18.60;77.00;;;;;;6156967;23;20348;-94
2023/07/31 03:18:20;;;;;;;7.60;2.40;;;18.60;77.40;;;;;;6133236;23;20503;-93
2023/07/31 03:20:50;;;;;;;5.93;1.98;;;18.60;77.30;;;;;;6132779;23;20335;-93
2023/07/31 03:23:20;;;;;;;5.78;1.75;;;18.50;77.30;;;;;;6157495;23;20018;-94
2023/07/31 03:26:00;;;;;;;6.73;1.93;;;18.60;77.40;;;;;;6133066;23;20028;-93
2023/07/31 03:28:39;;;;;;;8.32;2.05;;;18.60;77.40;;;;;;6134255;23;20021;-94
2023/07/31 03:31:08;;;;;;;5.15;2.00;;;18.60;77.30;;;;;;6132768;23;20534;-93
2023/07/31 03:33:39;;;;;;;5.57;2.38;;;18.70;77.30;;;;;;6133010;23;20049;-93
2023/07/31 03:36:09;;;;;;;4.97;1.70;;;18.80;77.40;;;;;;6132286;23;20018;-93
2023/07/31 03:38:36;;;;;;;6.50;2.13;;;18.80;77.20;;;;;;6132348;23;20024;-93
2023/07/31 03:41:06;;;;;;;4.20;1.88;;;18.80;77.10;;;;;;6156496;23;20108;-93
2023/07/31 03:43:38;;;;;;;4.78;2.25;;;18.70;77.10;;;;;;6133277;23;20025;-93
2023/07/31 03:46:06;;;;;;;5.68;2.28;;;18.70;77.30;;;;;;6132578;23;20024;-93
2023/07/31 03:48:33;;;;;;;5.40;1.95;;;18.60;77.80;;;;;;6132019;23;20052;-93
2023/07/31 03:51:08;;;;;;;6.70;2.20;;;18.50;78.00;;;;;;6132275;23;20451;-92
2023/07/31 03:53:35;;;;;;;5.53;1.83;;;18.50;78.40;;;;;;6132351;23;20466;-92
2023/07/31 03:56:05;;;;;;;6.00;1.85;;;18.30;77.20;;;;;;6132537;23;20355;-93
2023/07/31 03:58:34;;;;;;;5.13;1.88;;;18.10;76.90;;;;;;6132127;23;20014;-93
2023/07/31 04:01:09;;;;;;;5.68;2.08;;;18.00;77.20;;;;;;6133276;23;20021;-94
2023/07/31 04:03:40;;;;;;;5.87;1.90;;;18.00;77.50;;;;;;6133071;23;20013;-94
2023/07/31 04:06:10;;;;;;;5.22;2.08;;;17.90;77.90;;;;;;6131990;23;20041;-93
2023/07/31 04:08:41;;;;;;;8.80;2.17;;;18.00;78.10;;;;;;6131938;23;20419;-93
2023/07/31 04:11:19;;;;;;;5.38;1.90;;;18.00;77.20;;;;;;6132513;23;20025;-94
2023/07/31 04:13:50;;;;;;;6.00;1.92;;;18.00;77.40;;;;;;6125922;23;20077;-93
2023/07/31 04:16:25;;;;;;;5.70;1.90;;;17.90;77.10;;;;;;6132730;23;20111;-93
2023/07/31 04:19:03;;;;;;;;;;;;;;;;;;;;;
2023/07/31 04:21:36;;;;;;;5.68;2.13;;;18.00;77.20;;;;;;6156347;23;20017;-91
2023/07/31 04:24:07;;;;;;;6.90;2.30;;;18.00;77.20;;;;;;6131461;23;20501;-92
2023/07/31 04:26:37;;;;;;;6.00;2.53;;;18.00;77.40;;;;;;6131456;23;20039;-92
2023/07/31 04:29:07;;;;;;;6.87;2.07;;;18.00;77.70;;;;;;6132066;23;20452;-91
2023/07/31 04:31:35;;;;;;;7.13;2.45;;;18.10;78.10;;;;;;6132522;23;20018;-91
2023/07/31 04:34:13;;;;;;;7.22;2.38;;;18.20;78.50;;;;;;6157511;23;20017;-92
2023/07/31 04:36:57;;;;;;;5.32;2.10;;;18.10;78.30;;;;;;6134461;23;20092;-91
2023/07/31 04:39:29;;;;;;;10.38;2.58;;;18.20;78.30;;;;;;6132137;23;20022;-91
2023/07/31 04:42:07;;;;;;;6.87;2.37;;;18.20;78.60;;;;;;6156597;23;20026;-92
2023/07/31 04:44:37;;;;;;;6.45;2.13;;;18.10;79.00;;;;;;6132559;23;20023;-92
2023/07/31 04:47:11;;;;;;;8.35;2.15;;;18.10;78.90;;;;;;6132501;23;20026;-92
2023/07/31 04:49:47;;;;;;;7.07;2.30;;;18.10;78.70;;;;;;6132707;23;20044;-92
2023/07/31 04:52:20;;;;;;;5.93;2.15;;;18.30;78.50;;;;;;6132292;23;20021;-92
2023/07/31 04:54:50;;;;;;;6.57;2.20;;;18.30;78.70;;;;;;6133164;23;20108;-94
2023/07/31 04:57:20;;;;;;;5.43;1.90;;;18.40;78.50;;;;;;6132145;23;20022;-90
2023/07/31 04:59:50;;;;;;;5.78;2.53;;;18.40;78.20;;;;;;6132521;23;20017;-91
2023/07/31 05:02:19;;;;;;;7.32;2.15;;;18.40;78.50;;;;;;6132556;23;20025;-92
2023/07/31 05:05:02;;;;;;;7.18;2.38;;;18.50;78.80;;;;;;6133128;23;20018;-92
2023/07/31 05:11:47;;;;;;;5.45;2.15;;;18.50;79.30;;;;;;6158160;23;20008;-93
2023/07/31 05:14:21;;;;;;;7.40;1.90;;;18.50;78.90;;;;;;6133963;23;20325;-93
2023/07/31 05:16:59;;;;;;;5.75;2.05;;;18.50;78.50;;;;;;6161241;23;20020;-93
2023/07/31 05:19:53;;;;;;;8.63;2.05;;;18.50;78.50;;;;;;6137590;23;20017;-93
2023/07/31 05:22:23;;;;;;;6.33;1.70;;;18.60;77.90;;;;;;6161094;23;20017;-92
2023/07/31 05:29:00;;;;;;;7.93;2.40;;;18.80;76.40;;;;;;6187233;23;20031;-93
2023/07/31 05:31:38;;;;;;;10.73;2.92;;;19.00;75.80;;;;;;6136949;23;20021;-92
2023/07/31 05:34:06;;;;;;;9.15;2.90;;;19.10;75.40;;;;;;6136883;23;20459;-93
2023/07/31 05:41:07;;;;;;;10.90;2.60;;;19.20;74.30;;;;;;6186980;23;20020;-92
2023/07/31 05:43:43;;;;;;;7.72;2.50;;;19.40;74.30;;;;;;6137874;23;20021;-93
2023/07/31 05:46:28;;;;;;;8.55;2.50;;;19.50;74.60;;;;;;6139435;23;20047;-93
2023/07/31 05:48:59;;;;;;;11.48;3.38;;;19.60;74.00;;;;;;6137454;23;20450;-91
2023/07/31 05:51:27;;;;;;;8.83;3.00;;;19.60;74.20;;;;;;6137898;23;20473;-92
2023/07/31 05:53:56;;;;;;;9.45;2.75;;;19.60;73.30;;;;;;6137982;23;20021;-92
2023/07/31 05:56:33;;;;;;;9.98;3.25;;;19.70;73.50;;;;;;6138216;23;20466;-92
2023/07/31 05:59:13;;;;;;;7.35;2.38;;;19.80;73.00;;;;;;6138200;23;20071;-92
2023/07/31 06:01:44;;;;;;;7.53;2.40;;;19.80;71.30;;;;;;6138743;23;20028;-92
2023/07/31 06:04:15;;;;;;;6.23;2.30;;;19.90;71.90;;;;;;6137870;23;20020;-92
2023/07/31 06:06:52;;;;;;;6.78;2.40;;;19.80;71.00;;;;;;6140528;23;20016;-94
2023/07/31 06:09:20;;;;;;;5.15;2.28;;;19.80;71.30;;;;;;6138778;23;20506;-88
2023/07/31 06:11:47;;;;;;;6.70;2.15;;;19.80;71.20;;;;;;6137649;23;20144;-91
2023/07/31 06:14:22;;;;;;;5.53;2.00;;;19.80;71.40;;;;;;6133728;23;20033;-93
2023/07/31 06:16:56;;;;;;;6.57;2.17;;;19.90;70.60;;;;;;6133849;23;20108;-92
2023/07/31 06:19:28;;;;;;;6.05;2.00;;;20.00;70.10;;;;;;6133054;23;20014;-92
2023/07/31 06:22:08;;;;;;;7.07;2.20;;;20.10;69.80;;;;;;6133902;23;20028;-92
2023/07/31 06:24:47;;;;;;;6.63;2.10;;;20.20;70.00;;;;;;6157208;23;20017;-92
2023/07/31 06:27:21;;;;;;;6.13;2.08;;;20.30;70.10;;;;;;6134128;23;20021;-92
2023/07/31 06:30:05;;;;;;;4.80;1.70;;;20.30;69.40;;;;;;6157570;23;20452;-93
2023/07/31 06:32:42;;;;;;;8.30;1.70;;;20.30;68.50;;;;;;6133982;23;20022;-92
2023/07/31 06:35:18;;;;;;;5.00;1.60;;;20.20;69.20;;;;;;6133360;23;20381;-91
2023/07/31 06:37:52;;;;;;;7.20;1.23;;;20.10;68.70;;;;;;6158061;23;20028;-92
2023/07/31 06:40:24;;;;;;;7.25;1.40;;;20.20;67.00;;;;;;6133894;23;20076;-92
2023/07/31 06:43:07;;;;;;;6.30;1.63;;;20.20;66.30;;;;;;6134856;23;20087;-90
2023/07/31 06:45:36;;;;;;;6.00;1.70;;;20.20;67.30;;;;;;6133554;23;20099;-91
2023/07/31 06:48:14;;;;;;;6.75;1.70;;;20.30;66.40;;;;;;6133353;23;20028;-91
2023/07/31 06:50:55;;;;;;;7.90;1.83;;;20.30;66.70;;;;;;6133746;23;20068;-92
2023/07/31 06:53:29;;;;;;;6.85;2.08;;;20.50;67.40;;;;;;6134637;23;20440;-92
2023/07/31 06:56:16;;;;;;;6.43;1.97;;;20.60;68.10;;;;;;6134382;23;20018;-92
2023/07/31 07:02:54;;;;;;;5.32;1.80;;;20.60;67.40;;;;;;6158210;23;20491;-92
2023/07/31 07:05:33;;;;;;;5.18;1.83;;;20.50;66.20;;;;;;6133227;23;20368;-92
2023/07/31 07:08:16;;;;;;;7.50;1.80;;;20.40;65.30;;;;;;6135547;23;20017;-92
2023/07/31 07:10:53;;;;;;;5.17;1.87;;;20.40;66.40;;;;;;6133095;23;20021;-92
2023/07/31 07:17:39;;;;;;;5.35;1.60;;;20.50;64.20;;;;;;6161016;23;20396;-93
2023/07/31 07:27:54;;;;;;;5.83;1.93;;;21.10;65.40;;;;;;6142783;23;20112;-93
2023/07/31 07:30:41;;;;;;;5.22;1.50;;;21.10;64.50;;;;;;6137765;23;20024;-93
2023/07/31 07:33:19;;;;;;;5.60;1.75;;;21.20;65.30;;;;;;6138763;23;20443;-93
2023/07/31 07:48:17;;;;;;;6.53;1.65;;;21.80;60.30;;;;;;6187953;23;20015;-91
2023/07/31 07:51:02;;;;;;;5.93;1.50;;;21.60;61.50;;;;;;6138656;23;20025;-92
2023/07/31 07:53:42;;;;;;;5.85;2.03;;;21.50;61.10;;;;;;6137655;23;20021;-92
2023/07/31 07:56:17;;;;;;;5.95;2.10;;;21.40;62.30;;;;;;6138467;23;20025;-91
2023/07/31 07:58:54;;;;;;;5.67;1.60;;;21.40;62.80;;;;;;6161298;23;20021;-92
2023/07/31 08:01:30;;;;;;;6.72;1.45;;;21.40;61.30;;;;;;6137950;23;20108;-92
2023/07/31 08:03:59;;;;;;;5.35;1.50;;;21.40;60.90;;;;;;6136784;23;20043;-92
2023/07/31 08:06:47;;;;;;;4.72;1.33;;;21.50;61.90;;;;;;6139272;23;20107;-92
2023/07/31 08:09:26;;;;;;;6.10;1.70;;;21.60;61.90;;;;;;6139502;23;20021;-92
2023/07/31 08:12:05;;;;;;;5.47;1.80;;;21.70;62.20;;;;;;6136572;23;20037;-91
2023/07/31 08:14:36;;;;;;;7.20;2.00;;;21.80;60.90;;;;;;6136882;23;20017;-92
2023/07/31 08:17:18;;;;;;;6.45;2.00;;;22.00;61.60;;;;;;6138940;23;20355;-92
2023/07/31 08:19:52;;;;;;;7.13;1.90;;;22.10;62.10;;;;;;6137756;23;20021;-92
2023/07/31 08:22:34;;;;;;;5.53;2.00;;;22.30;60.90;;;;;;6137492;23;20399;-92
2023/07/31 08:25:18;;;;;;;7.40;1.70;;;22.30;59.70;;;;;;6139556;23;20067;-91
2023/07/31 08:28:19;;;;;;;5.75;1.92;;;22.50;58.20;;;;;;6168493;23;20077;-91
2023/07/31 08:30:57;;;;;;;5.50;2.10;;;22.70;57.20;;;;;;6138674;23;20024;-91
2023/07/31 08:33:27;;;;;;;5.45;1.90;;;22.60;57.70;;;;;;6136842;23;20075;-91
2023/07/31 08:35:58;;;;;;;7.00;2.10;;;22.30;57.80;;;;;;6137756;23;20017;-90
2023/07/31 08:38:26;;;;;;;5.30;1.87;;;22.20;59.60;;;;;;6137154;23;20028;-91
2023/07/31 08:41:04;;;;;;;7.80;2.30;;;22.20;60.90;;;;;;6136982;23;20055;-92
2023/07/31 08:43:49;;;;;;;7.13;2.50;;;22.40;60.20;;;;;;6140357;23;20013;-92
2023/07/31 08:46:28;;;;;;;7.50;2.90;;;22.50;59.50;;;;;;6138385;23;20339;-92
2023/07/31 08:49:11;;;;;;;7.45;2.72;;;22.60;57.40;;;;;;6137123;23;20039;-92
2023/07/31 08:51:43;;;;;;;7.40;2.30;;;22.80;57.70;;;;;;6136393;23;20025;-92
2023/07/31 08:54:20;;;;;;;8.10;2.92;;;22.70;57.90;;;;;;6138031;23;20352;-92
2023/07/31 08:56:52;;;;;;;8.55;3.08;;;22.60;59.50;;;;;;6136755;23;20029;-92
2023/07/31 08:59:25;;;;;;;7.88;2.72;;;22.80;59.10;;;;;;6137240;23;20021;-92
2023/07/31 09:02:02;;;;;;;7.28;2.70;;;22.90;56.90;;;;;;6137062;23;20440;-92
2023/07/31 09:04:31;;;;;;;6.07;2.87;;;23.00;57.10;;;;;;6137177;23;20447;-92
2023/07/31 09:07:04;;;;;;;8.10;3.22;;;23.10;57.40;;;;;;6137176;23;20092;-92
2023/07/31 09:09:32;;;;;;;8.48;2.88;;;23.20;58.50;;;;;;6137128;23;20025;-92
2023/07/31 09:12:12;;;;;;;8.13;3.00;;;23.30;56.50;;;;;;6160848;23;20021;-92
2023/07/31 09:14:45;;;;;;;6.32;3.13;;;23.40;55.50;;;;;;6137174;23;20021;-92
2023/07/31 09:17:36;;;;;;;7.67;3.00;;;23.30;55.70;;;;;;6136845;23;20032;-92
2023/07/31 09:20:58;;;;;;;6.65;2.83;;;23.30;57.00;;;;;;6137260;23;20021;-92
2023/07/31 09:23:47;;;;;;;5.80;2.63;;;23.20;56.30;;;;;;6141728;23;20013;-91
2023/07/31 09:27:26;;;;;;;6.10;2.55;;;23.40;58.10;;;;;;6138121;23;20055;-92
2023/07/31 09:30:08;;;;;;;7.53;2.67;;;23.50;55.10;;;;;;6138664;23;20013;-92
2023/07/31 09:32:42;;;;;;;6.40;2.23;;;23.40;55.20;;;;;;6138425;23;20447;-93
2023/07/31 09:35:20;;;;;;;7.05;2.60;;;23.50;54.30;;;;;;6137888;23;20017;-92
2023/07/31 09:37:58;;;;;;;6.43;2.83;;;23.60;55.30;;;;;;6138435;23;20465;-92
2023/07/31 09:40:38;;;;;;;4.70;1.20;;;23.60;53.00;;;;;;6137906;23;20372;-92
2023/07/31 09:43:13;;;;;;;5.07;1.30;;;23.70;53.60;;;;;;6137785;23;20489;-92
2023/07/31 09:45:43;;;;;;;6.63;1.70;;;23.50;54.50;;;;;;6162709;23;20017;-92
2023/07/31 09:48:20;;;;;;;6.22;1.40;;;23.50;54.90;;;;;;6139083;23;20025;-92
2023/07/31 09:51:07;;;;;;;4.82;1.58;;;23.70;54.10;;;;;;6140678;23;20028;-92
2023/07/31 09:53:38;;;;;;;6.70;1.42;;;23.90;53.80;;;;;;6138291;23;20024;-92
2023/07/31 09:56:11;;;;;;;5.50;1.42;;;24.10;53.10;;;;;;6138758;23;20047;-93
2023/07/31 09:58:48;;;;;;;5.77;1.30;;;24.10;53.70;;;;;;6138200;23;20013;-92
2023/07/31 10:01:26;;;;;;;4.63;1.30;;;24.30;50.80;;;;;;6139578;23;20013;-92
2023/07/31 10:04:00;;;;;;;4.90;1.60;;;24.50;51.60;;;;;;6139312;23;20017;-92
2023/07/31 10:06:36;;;;;;;5.80;1.50;;;24.60;52.10;;;;;;6139209;23;20016;-92
2023/07/31 10:09:14;;;;;;;6.85;1.30;;;24.40;50.20;;;;;;6139274;23;20021;-92
2023/07/31 10:12:37;;;;;;;5.83;1.60;;;24.40;50.30;;;;;;6137973;23;20021;-92
2023/07/31 10:15:11;;;;;;;4.15;1.00;;;24.30;51.80;;;;;;6156059;23;20032;-92
2023/07/31 10:17:46;;;;;;;5.03;1.20;;;24.10;49.80;;;;;;6134751;23;20025;-93
2023/07/31 10:24:09;;;;;;;6.47;1.60;;;23.90;52.90;;;;;;6118578;23;20033;-92
2023/07/31 10:26:39;;;;;;;5.87;1.77;;;24.00;51.50;;;;;;6133500;23;20024;-92
2023/07/31 10:29:11;;;;;;;6.22;1.85;;;24.10;51.60;;;;;;6134862;23;20022;-92
2023/07/31 10:31:41;;;;;;;4.65;1.17;;;24.10;49.80;;;;;;6133389;23;20025;-92
2023/07/31 10:34:12;;;;;;;4.70;1.13;;;23.90;50.10;;;;;;6157489;23;20036;-92
2023/07/31 10:40:45;;;;;;;5.93;0.90;;;24.10;46.00;;;;;;6157314;23;20006;-93
2023/07/31 10:43:30;;;;;;;5.70;1.20;;;24.20;46.50;;;;;;6157257;23;20029;-92
2023/07/31 10:46:08;;;;;;;4.68;1.00;;;24.40;45.50;;;;;;6134380;23;20021;-92
2023/07/31 10:49:52;;;;;;;11.20;1.35;;;24.20;46.50;;;;;;6132476;23;20021;-92
2023/07/31 10:53:24;;;;;;;6.57;1.50;;;24.10;48.00;;;;;;6134881;23;20014;-92
2023/07/31 10:56:22;;;;;;;5.43;1.17;;;24.30;48.20;;;;;;6133021;23;20013;-92
2023/07/31 10:59:08;;;;;;;5.22;1.10;;;24.50;47.20;;;;;;6135535;23;20017;-92
2023/07/31 11:01:57;;;;;;;5.60;1.42;;;24.50;48.20;;;;;;6133329;23;20388;-92
2023/07/31 11:05:44;;;;;;;5.03;1.25;;;24.70;48.80;;;;;;6134171;23;20017;-92
2023/07/31 11:08:23;;;;;;;6.07;1.15;;;24.60;47.90;;;;;;6133050;23;20022;-92
2023/07/31 11:11:19;;;;;;;5.57;1.77;;;24.60;49.30;;;;;;6134510;23;20348;-92
2023/07/31 11:18:43;;;;;;;4.13;1.13;;;24.70;46.10;;;;;;6162941;23;20563;-92
2023/07/31 11:21:47;;;;;;;4.95;1.05;;;24.80;45.70;;;;;;6142334;23;20017;-92
2023/07/31 11:24:24;;;;;;;3.58;0.98;;;24.70;46.30;;;;;;6138270;23;20017;-92
2023/07/31 11:26:59;;;;;;;5.63;1.20;;;24.70;47.10;;;;;;6137033;23;20013;-92
2023/07/31 11:29:44;;;;;;;7.53;1.48;;;24.80;47.30;;;;;;6139344;23;20025;-92
2023/07/31 11:32:17;;;;;;;4.32;1.20;;;25.00;49.00;;;;;;6137317;23;20028;-92
2023/07/31 11:34:57;;;;;;;6.93;1.52;;;25.10;49.30;;;;;;6138252;23;20020;-93
2023/07/31 11:37:45;;;;;;;5.95;1.60;;;25.30;45.40;;;;;;6138757;23;20024;-92
2023/07/31 11:40:20;;;;;;;5.37;1.20;;;25.40;46.80;;;;;;6137295;23;20459;-93
2023/07/31 11:43:30;;;;;;;5.25;1.10;;;25.50;46.80;;;;;;6137506;23;20024;-92
2023/07/31 11:46:10;;;;;;;3.95;1.00;;;25.60;44.40;;;;;;6163277;23;20021;-92
2023/07/31 11:48:51;;;;;;;4.63;0.90;;;25.60;45.50;;;;;;6138469;23;20052;-93
2023/07/31 11:51:31;;;;;;;6.03;1.15;;;25.60;44.50;;;;;;6137925;23;20339;-92
2023/07/31 11:54:01;;;;;;;3.97;0.77;;;25.60;42.60;;;;;;6136685;23;20027;-92
2023/07/31 11:56:37;;;;;;;9.07;1.20;;;25.60;43.90;;;;;;6137596;23;20344;-92
2023/07/31 11:59:27;;;;;;;5.53;1.00;;;25.60;47.00;;;;;;6137971;23;20140;-92
2023/07/31 12:01:55;;;;;;;5.07;1.30;;;25.60;46.00;;;;;;6136941;23;20028;-92
2023/07/31 12:04:26;;;;;;;4.85;1.00;;;25.70;45.10;;;;;;6138487;23;20017;-92
2023/07/31 12:07:08;;;;;;;3.93;1.30;;;25.60;44.30;;;;;;6139532;23;20459;-93
2023/07/31 12:15:42;;;;;;;5.82;0.98;;;25.70;45.40;;;;;;5952336;24;20117;-96
2023/07/31 12:42:29;;;;;;;4.25;1.98;;;26.20;46.00;;;;;;6182653;23;20837;31
2023/07/31 13:03:37;;;;;;;4.57;1.88;;;25.80;46.10;;;;;;6244345;23;20063;-96
2023/07/31 13:22:48;;;;;;;5.82;1.85;;;26.00;47.20;;;;;;6203445;23;20023;-96
2023/07/31 13:34:12;;;;;;;7.78;2.47;;;26.10;44.40;;;;;;6111780;23;20062;-96
2023/07/31 13:37:24;;;;;;;4.53;2.17;;;26.00;46.70;;;;;;6097119;23;20049;-96
2023/07/31 13:45:23;;;;;;;8.40;1.90;;;26.20;46.00;;;;;;6116858;23;20022;-96
2023/07/31 13:50:20;;;;;;;7.07;2.35;;;26.30;45.80;;;;;;6052699;23;20058;-95
2023/07/31 13:53:21;;;;;;;;;;;;;;;;;;;;;
2023/07/31 14:01:04;;;;;;;4.25;1.75;;;25.90;46.00;;;;;;6020792;23;20075;-95
2023/07/31 14:05:37;;;;;;;3.90;1.83;;;26.10;45.90;;;;;;6017908;23;20103;-96
2023/07/31 14:14:01;;;;;;;4.90;2.00;;;25.70;46.70;;;;;;5921392;24;20066;-96
2023/07/31 14:21:24;;;;;;;;;;;;;;;;;;;;;
2023/07/31 14:34:58;;;;;;;4.57;2.08;;;25.50;47.80;;;;;;6175018;23;20009;-96
2023/07/31 14:46:40;;;;;;;4.03;1.77;;;25.60;47.70;;;;;;6235918;23;20020;-96
2023/07/31 15:29:21;;;;;;;8.20;1.10;;;25.20;49.60;;;;;;6171894;23;20099;-96
2023/07/31 17:20:02;;;;;;;4.75;0.98;;;25.00;51.60;;;;;;6125257;23;20092;-90
2023/07/31 17:23:16;;;;;;;5.30;1.02;;;24.90;50.20;;;;;;6198341;23;20021;-90
2023/07/31 17:26:14;;;;;;;;;;;;;;;;;;;;;
2023/07/31 17:29:32;;;;;;;6.40;1.00;;;24.70;48.60;;;;;;6188988;23;20051;-90
2023/07/31 17:32:28;;;;;;;6.10;1.00;;;24.70;49.70;;;;;;6168004;23;20021;-90
2023/07/31 17:40:09;;;;;;;6.45;1.08;;;24.60;51.40;;;;;;6067961;23;20047;-88
2023/07/31 17:42:36;;;;;;;5.85;1.10;;;24.30;53.30;;;;;;6081772;23;20344;-88
2023/07/31 17:45:07;;;;;;;4.78;1.13;;;24.30;53.60;;;;;;6167247;23;20040;-91
2023/07/31 17:51:40;;;;;;;5.30;1.35;;;24.10;55.70;;;;;;6220123;23;20058;-93
2023/07/31 17:54:08;;;;;;;7.28;1.25;;;23.90;56.20;;;;;;6168421;23;20013;-94
2023/07/31 17:56:37;;;;;;;9.82;1.40;;;23.90;54.30;;;;;;6168704;23;20016;-95
2023/07/31 17:59:06;;;;;;;6.75;0.95;;;23.80;55.10;;;;;;6168537;23;20017;-94
2023/07/31 18:01:34;;;;;;;5.70;1.20;;;23.80;55.10;;;;;;6168554;23;20343;-93
2023/07/31 18:04:05;;;;;;;6.97;1.05;;;23.60;54.70;;;;;;6169423;23;20031;-92
2023/07/31 18:06:34;;;;;;;5.53;1.00;;;23.60;54.60;;;;;;6168525;23;20021;-92
2023/07/31 18:09:09;;;;;;;6.00;1.17;;;23.50;55.50;;;;;;6166900;23;20027;-92
2023/07/31 18:11:36;;;;;;;8.30;1.10;;;23.40;55.60;;;;;;6138464;23;20017;-91
2023/07/31 18:14:05;;;;;;;5.10;1.20;;;23.30;57.00;;;;;;6138595;23;20025;-93
2023/07/31 18:16:34;;;;;;;6.72;1.33;;;23.30;57.40;;;;;;6142681;23;20021;-93
2023/07/31 18:19:05;;;;;;;4.43;1.10;;;23.20;57.20;;;;;;6143768;23;20020;-94
2023/07/31 18:21:35;;;;;;;6.20;1.23;;;23.10;58.50;;;;;;6140309;23;20470;-93
2023/07/31 18:24:10;;;;;;;6.20;1.00;;;23.00;58.80;;;;;;6138801;23;20325;-92
2023/07/31 18:26:41;;;;;;;6.17;1.17;;;22.90;58.10;;;;;;6140567;23;20455;-92
2023/07/31 18:29:12;;;;;;;8.52;1.38;;;22.90;58.40;;;;;;6138191;23;20055;-93
2023/07/31 18:32:18;;;;;;;5.65;1.40;;;22.80;59.60;;;;;;6147784;23;20009;-94
2023/07/31 18:34:51;;;;;;;6.88;1.40;;;22.70;59.00;;;;;;6177488;23;20069;-95
2023/07/31 18:37:23;;;;;;;4.85;1.05;;;22.60;60.10;;;;;;6178909;23;20056;-93
2023/07/31 18:40:29;;;;;;;5.97;1.30;;;22.40;61.30;;;;;;6173018;23;19993;-93
2023/07/31 18:48:06;;;;;;;5.70;1.50;;;22.10;62.80;;;;;;6200733;22;20032;-96
2023/07/31 18:51:18;;;;;;;5.90;1.70;;;21.90;63.40;;;;;;6180955;23;20021;-96
2023/07/31 19:03:13;;;;;;;7.57;1.75;;;21.70;64.30;;;;;;6152483;23;20089;-94
2023/07/31 19:10:37;;;;;;;6.25;1.70;;;21.70;64.50;;;;;;6139398;23;20177;-94
2023/07/31 19:17:46;;;;;;;5.93;1.70;;;21.50;65.30;;;;;;6140078;23;20002;-96
2023/07/31 19:20:41;;;;;;;6.70;1.90;;;21.40;65.40;;;;;;6122194;23;20028;-95
2023/07/31 19:28:15;;;;;;;6.95;1.60;;;21.20;66.20;;;;;;6057891;23;20018;-95
2023/07/31 19:31:32;;;;;;;6.47;2.00;;;21.10;66.60;;;;;;6038006;23;20024;-94
2023/07/31 19:34:45;;;;;;;6.97;1.80;;;21.10;66.30;;;;;;6171694;23;20014;-94
2023/07/31 19:38:21;;;;;;;7.68;2.25;;;21.00;66.40;;;;;;6154889;23;20034;-94
2023/07/31 19:41:20;;;;;;;6.93;1.63;;;20.90;66.80;;;;;;6127016;23;20057;-93
2023/07/31 19:49:09;;;;;;;;;;;;;;;;;;;;;
2023/07/31 20:00:15;;;;;;;10.73;2.53;;;20.30;68.50;;;;;;6176696;23;20002;-95
2023/07/31 20:12:13;;;;;;;7.37;2.33;;;20.20;68.50;;;;;;6171630;23;20020;-94
2023/07/31 20:15:39;;;;;;;8.38;2.15;;;20.20;68.00;;;;;;6147438;23;20001;-94
2023/07/31 20:22:07;;;;;;;7.32;2.05;;;20.10;68.10;;;;;;6116277;23;20444;-92
2023/07/31 20:24:41;;;;;;;7.57;2.03;;;20.00;67.80;;;;;;6108803;23;20026;-93
2023/07/31 20:27:09;;;;;;;6.87;1.80;;;20.00;68.20;;;;;;6107948;23;20037;-92
2023/07/31 20:29:45;;;;;;;6.18;1.60;;;19.90;67.80;;;;;;6131942;23;20072;-92
2023/07/31 20:32:13;;;;;;;6.43;2.10;;;19.80;67.60;;;;;;6107710;23;20018;-93
2023/07/31 20:34:46;;;;;;;5.63;1.70;;;19.70;67.50;;;;;;6107624;23;20333;-91
2023/07/31 20:37:19;;;;;;;6.30;1.85;;;19.60;68.10;;;;;;6107671;23;20395;-92
2023/07/31 20:44:15;;;;;;;7.15;1.52;;;19.60;68.00;;;;;;6131973;23;20029;-92
2023/07/31 20:46:43;;;;;;;4.95;1.30;;;19.50;68.00;;;;;;6108352;23;20041;-92
2023/07/31 20:49:11;;;;;;;5.60;1.90;;;19.50;67.90;;;;;;6131807;23;20065;-93
2023/07/31 20:51:43;;;;;;;6.22;1.50;;;19.40;68.20;;;;;;6131868;23;20021;-92
2023/07/31 20:54:11;;;;;;;5.97;1.90;;;19.30;68.30;;;;;;6131661;23;20076;-91
2023/07/31 20:57:01;;;;;;;9.65;1.80;;;19.20;68.90;;;;;;6156973;23;20044;-91
2023/07/31 20:59:28;;;;;;;6.55;1.80;;;19.20;68.80;;;;;;6107302;23;20105;-91
2023/07/31 21:02:16;;;;;;;5.60;1.50;;;19.20;69.00;;;;;;6131271;23;20078;-90
2023/07/31 21:09:27;;;;;;;5.53;1.93;;;19.10;69.20;;;;;;6158020;23;20011;-91
2023/07/31 21:11:57;;;;;;;7.22;1.70;;;19.10;69.40;;;;;;6107512;23;20321;-91
2023/07/31 21:14:29;;;;;;;7.43;1.63;;;19.10;69.30;;;;;;6108354;23;20108;-90
2023/07/31 21:16:56;;;;;;;8.13;1.90;;;19.00;69.40;;;;;;6107141;23;20056;-91
2023/07/31 21:19:23;;;;;;;6.15;1.70;;;19.00;69.50;;;;;;6131933;23;20021;-90
2023/07/31 21:21:51;;;;;;;8.43;2.13;;;19.00;69.60;;;;;;6109406;23;20018;-90
2023/07/31 21:24:20;;;;;;;5.93;1.80;;;18.90;69.90;;;;;;6133221;23;20018;-90
2023/07/31 21:26:47;;;;;;;8.88;1.80;;;18.80;70.00;;;;;;6133262;23;20018;-91
2023/07/31 21:29:15;;;;;;;7.47;2.00;;;18.80;70.00;;;;;;6108949;23;20103;-90
2023/07/31 21:31:42;;;;;;;6.88;2.05;;;18.80;70.30;;;;;;6133434;23;20101;-91
2023/07/31 21:34:12;;;;;;;7.70;1.87;;;18.70;70.30;;;;;;6133341;23;20013;-90
2023/07/31 21:36:40;;;;;;;7.55;1.90;;;18.70;70.60;;;;;;6133142;23;20381;-91
2023/07/31 21:39:07;;;;;;;5.63;1.92;;;18.60;70.20;;;;;;6108826;23;20108;-90
2023/07/31 21:41:37;;;;;;;8.32;1.90;;;18.70;70.50;;;;;;6108782;23;20444;-90
2023/07/31 21:44:05;;;;;;;9.10;2.13;;;18.70;70.30;;;;;;6109032;23;20013;-90
2023/07/31 21:46:34;;;;;;;6.80;2.00;;;18.60;70.80;;;;;;6133142;23;20028;-90
2023/07/31 21:49:02;;;;;;;8.23;2.10;;;18.60;70.80;;;;;;6109552;23;20041;-90
2023/07/31 21:51:30;;;;;;;6.10;1.80;;;18.60;70.40;;;;;;6108840;23;20025;-90
2023/07/31 21:53:57;;;;;;;7.80;2.03;;;18.60;70.70;;;;;;6133165;23;20056;-91
2023/07/31 21:56:25;;;;;;;6.60;1.80;;;18.60;70.70;;;;;;6109072;23;20022;-90
2023/07/31 21:58:52;;;;;;;6.53;2.40;;;18.60;70.40;;;;;;6132751;23;20021;-91
2023/07/31 22:01:20;;;;;;;9.02;2.03;;;18.50;70.90;;;;;;6133059;23;20072;-91
2023/07/31 22:03:48;;;;;;;5.78;1.95;;;18.60;70.60;;;;;;6133224;23;20017;-92
2023/07/31 22:06:15;;;;;;;6.18;1.92;;;18.60;70.30;;;;;;6133154;23;20096;-91
2023/07/31 22:08:43;;;;;;;7.50;2.17;;;18.60;70.10;;;;;;6109049;23;20024;-92
2023/07/31 22:11:10;;;;;;;8.17;2.03;;;18.60;69.80;;;;;;6133335;23;20025;-90
2023/07/31 22:13:37;;;;;;;5.13;1.77;;;18.60;69.70;;;;;;6133509;23;20057;-90
2023/07/31 22:16:05;;;;;;;6.25;1.90;;;18.60;69.60;;;;;;6108844;23;20021;-92
2023/07/31 22:18:32;;;;;;;6.28;1.75;;;18.60;69.50;;;;;;6133165;23;20456;-90
2023/07/31 22:21:01;;;;;;;7.93;1.65;;;18.60;69.30;;;;;;6108804;23;20072;-91
2023/07/31 22:23:28;;;;;;;6.77;2.00;;;18.60;69.20;;;;;;6133052;23;20104;-91
2023/07/31 22:25:56;;;;;;;6.75;1.58;;;18.60;69.10;;;;;;6108689;23;20127;-90
2023/07/31 22:28:23;;;;;;;5.40;1.70;;;18.60;69.00;;;;;;6108466;23;20040;-91
2023/07/31 22:30:50;;;;;;;5.97;2.03;;;18.60;69.20;;;;;;6132645;23;20048;-91
2023/07/31 22:33:18;;;;;;;6.38;1.80;;;18.60;69.50;;;;;;6133121;23;20462;-91
2023/07/31 22:35:48;;;;;;;6.57;1.80;;;18.50;69.00;;;;;;6132955;23;20021;-90
2023/07/31 22:38:15;;;;;;;7.32;1.67;;;18.50;69.10;;;;;;6133046;23;20021;-90
2023/07/31 22:40:42;;;;;;;7.60;1.88;;;18.50;69.10;;;;;;6132666;23;20452;-91
2023/07/31 22:43:11;;;;;;;6.45;1.80;;;18.50;69.20;;;;;;6133404;23;20017;-91
2023/07/31 22:45:43;;;;;;;7.32;1.75;;;18.50;69.40;;;;;;6132580;23;20452;-90
2023/07/31 22:48:13;;;;;;;5.70;1.73;;;18.50;69.20;;;;;;6132621;23;20489;-92
2023/07/31 22:50:40;;;;;;;5.88;1.55;;;18.50;68.90;;;;;;6133058;23;20021;-91
2023/07/31 22:53:07;;;;;;;6.72;1.77;;;18.50;69.00;;;;;;6131041;23;20511;-91
2023/07/31 22:55:34;;;;;;;5.65;1.60;;;18.50;68.80;;;;;;6132661;23;20021;-91